Time;durP1;ratioP1;P1;durP2;ratioP2;P2;SDS_P1;SDS_P2;PMS_P1;PMS_P2;Temp;Humidity;BMP_temperature;BMP_pressure;BME280_temperature;BME280_humidity;BME280_pressure;Samples;Min_cycle;Max_cycle;Signal;HPM_P1;HPM_P2
2023/01/15 00:02:04;;;;;;;11.80;3.03;;;9.20;95.20;;;;;;5070887;28;20039;-65
2023/01/15 00:04:30;;;;;;;7.15;2.30;;;9.30;95.30;;;;;;5074569;28;20027;-64
2023/01/15 00:06:55;;;;;;;6.93;2.60;;;9.30;95.30;;;;;;5066031;28;20048;-65
2023/01/15 00:09:21;;;;;;;7.83;2.20;;;9.20;95.20;;;;;;5070814;28;20476;-65
2023/01/15 00:11:47;;;;;;;3.50;1.93;;;9.20;95.80;;;;;;5069129;28;20016;-65
2023/01/15 00:14:12;;;;;;;7.03;2.30;;;9.30;95.50;;;;;;5065826;28;20068;-65
2023/01/15 00:16:39;;;;;;;4.67;2.17;;;9.30;94.80;;;;;;5076849;28;20031;-65
2023/01/15 00:19:07;;;;;;;10.02;2.67;;;9.40;94.50;;;;;;5064686;28;20131;-64
2023/01/15 00:21:33;;;;;;;9.90;2.47;;;9.50;93.70;;;;;;5068026;28;20052;-64
2023/01/15 00:29:27;;;;;;;5.07;1.90;;;9.40;94.00;;;;;;5068314;28;20034;-64
2023/01/15 00:32:04;;;;;;;6.50;2.47;;;9.50;94.00;;;;;;5066575;28;20024;-65
2023/01/15 00:34:31;;;;;;;5.63;2.08;;;9.50;94.20;;;;;;5075779;28;20092;-65
2023/01/15 00:36:57;;;;;;;5.03;2.17;;;9.50;94.50;;;;;;5064542;28;20455;-65
2023/01/15 00:39:23;;;;;;;6.43;1.85;;;9.40;95.30;;;;;;5070143;28;20078;-64
2023/01/15 00:41:50;;;;;;;8.83;2.77;;;9.40;94.80;;;;;;5067243;28;20028;-65
2023/01/15 00:44:15;;;;;;;;;;;9.50;94.00;;;;;;5069924;28;20056;-65
2023/01/15 00:46:41;;;;;;;10.45;3.22;;;9.50;94.20;;;;;;5069768;28;19955;-65
2023/01/15 00:49:07;;;;;;;4.72;2.00;;;9.40;95.10;;;;;;5070594;28;20411;-65
2023/01/15 00:51:33;;;;;;;10.10;2.53;;;9.40;95.60;;;;;;5069567;28;20021;-65
2023/01/15 00:53:59;;;;;;;5.80;2.35;;;9.40;94.60;;;;;;5070899;28;20029;-65
2023/01/15 00:56:24;;;;;;;6.88;2.03;;;9.40;95.80;;;;;;5067716;28;20040;-65
2023/01/15 00:58:50;;;;;;;7.27;2.97;;;9.30;95.30;;;;;;5067490;28;20579;-65
2023/01/15 01:01:16;;;;;;;4.83;2.03;;;9.50;94.10;;;;;;5066221;28;20076;-65
2023/01/15 01:03:42;;;;;;;3.27;1.97;;;9.50;94.20;;;;;;5068173;28;20531;-64
2023/01/15 01:06:09;;;;;;;10.63;2.47;;;9.50;94.20;;;;;;5062910;28;20036;-65
2023/01/15 01:08:34;;;;;;;9.45;2.28;;;9.50;94.70;;;;;;5068246;28;20473;-65
2023/01/15 01:11:07;;;;;;;6.53;2.23;;;9.50;95.00;;;;;;5067922;28;20055;-65
2023/01/15 01:13:34;;;;;;;4.15;2.05;;;9.60;94.80;;;;;;5056202;28;20110;-65
2023/01/15 01:15:59;;;;;;;5.68;2.22;;;9.50;95.30;;;;;;5065202;28;20558;-64
2023/01/15 01:18:25;;;;;;;8.20;2.60;;;9.50;95.40;;;;;;5067531;28;20020;-65
2023/01/15 01:20:51;;;;;;;9.05;2.67;;;9.50;95.30;;;;;;5070525;28;20373;-64
2023/01/15 01:23:17;;;;;;;9.13;2.65;;;9.60;95.70;;;;;;5070213;28;20036;-64
2023/01/15 01:25:43;;;;;;;10.93;2.45;;;9.60;95.50;;;;;;5069686;28;20439;-65
2023/01/15 01:28:09;;;;;;;8.63;2.67;;;9.60;95.60;;;;;;5073780;28;20079;-64
2023/01/15 01:30:36;;;;;;;13.60;3.20;;;9.70;95.00;;;;;;5069341;28;20059;-64
2023/01/15 01:33:01;;;;;;;9.93;3.42;;;9.60;95.90;;;;;;5068706;28;20028;-64
2023/01/15 01:35:27;;;;;;;11.27;3.07;;;9.60;96.50;;;;;;5068335;28;20044;-65
2023/01/15 01:37:52;;;;;;;12.93;2.77;;;9.50;96.60;;;;;;5072392;28;20545;-64
2023/01/15 01:40:19;;;;;;;12.23;3.33;;;9.60;97.00;;;;;;5070341;28;20029;-65
2023/01/15 01:42:45;;;;;;;9.52;2.78;;;9.50;97.00;;;;;;5074839;28;20030;-64
2023/01/15 01:45:23;;;;;;;11.05;3.38;;;9.50;96.90;;;;;;5067221;28;20040;-64
2023/01/15 01:47:51;;;;;;;9.15;2.90;;;9.50;98.00;;;;;;5078366;28;20585;-65
2023/01/15 01:50:17;;;;;;;7.95;2.53;;;9.50;98.10;;;;;;5071433;28;20029;-64
2023/01/15 01:52:46;;;;;;;12.52;3.95;;;9.50;97.70;;;;;;5070740;28;20081;-65
2023/01/15 01:55:15;;;;;;;7.03;2.42;;;9.50;97.50;;;;;;5073696;28;20132;-65
2023/01/15 01:57:41;;;;;;;6.97;2.97;;;9.60;97.50;;;;;;5069479;28;20423;-64
2023/01/15 02:00:09;;;;;;;9.25;3.08;;;9.50;97.50;;;;;;5071952;28;20024;-65
2023/01/15 02:02:35;;;;;;;11.15;3.55;;;9.50;98.10;;;;;;5048748;28;20056;-64
2023/01/15 02:05:02;;;;;;;10.97;3.07;;;9.60;97.90;;;;;;5075331;28;20475;-64
2023/01/15 02:07:30;;;;;;;;;;;9.60;97.80;;;;;;5071665;28;20089;-64
2023/01/15 02:09:55;;;;;;;9.65;2.80;;;9.70;97.80;;;;;;5075763;28;19989;-64
2023/01/15 02:12:31;;;;;;;23.90;3.47;;;9.60;97.80;;;;;;5071253;28;20529;-65
2023/01/15 02:15:14;;;;;;;15.35;3.08;;;9.60;98.60;;;;;;5071613;28;20116;-64
2023/01/15 02:18:05;;;;;;;10.77;2.97;;;9.60;98.50;;;;;;5069695;28;20102;-65
2023/01/15 02:20:48;;;;;;;13.93;4.00;;;9.60;97.90;;;;;;5068848;28;20020;-65
2023/01/15 02:23:50;;;;;;;9.07;3.05;;;9.60;98.30;;;;;;5060915;28;20029;-64
2023/01/15 02:26:43;;;;;;;9.02;2.95;;;9.60;97.70;;;;;;5073677;28;20020;-65
2023/01/15 02:29:25;;;;;;;15.93;3.28;;;9.70;97.30;;;;;;5068844;28;20469;-65
2023/01/15 02:31:51;;;;;;;14.32;2.95;;;9.60;98.20;;;;;;5063596;28;20063;-65
2023/01/15 02:34:34;;;;;;;9.43;3.00;;;9.60;98.10;;;;;;5076381;28;20036;-65
2023/01/15 02:37:09;;;;;;;13.65;3.67;;;9.70;98.10;;;;;;5066907;28;20032;-65
2023/01/15 02:39:39;;;;;;;12.70;3.05;;;9.70;98.20;;;;;;5087264;28;20027;-65
2023/01/15 02:42:08;;;;;;;14.45;3.45;;;9.70;97.80;;;;;;5070473;28;20028;-65
2023/01/15 02:44:39;;;;;;;12.18;2.83;;;9.70;97.80;;;;;;5068226;28;20020;-64
2023/01/15 02:47:06;;;;;;;8.70;4.55;;;9.80;96.60;;;;;;5069332;28;20020;-65
2023/01/15 02:49:32;;;;;;;13.73;3.53;;;9.80;96.90;;;;;;5070994;28;20039;-65
2023/01/15 02:52:26;;;;;;;16.45;3.47;;;9.80;96.60;;;;;;5069258;28;20111;-64
2023/01/15 02:54:58;;;;;;;14.75;3.28;;;9.90;96.40;;;;;;5061151;28;20561;-64
2023/01/15 02:57:27;;;;;;;14.63;3.05;;;9.90;95.90;;;;;;5065569;28;20395;-65
2023/01/15 02:59:57;;;;;;;9.18;3.33;;;9.90;96.00;;;;;;5071434;28;20028;-65
2023/01/15 03:02:27;;;;;;;14.20;2.90;;;9.90;95.90;;;;;;5068144;28;20042;-65
2023/01/15 03:05:08;;;;;;;10.20;3.08;;;9.90;96.10;;;;;;5072677;28;20032;-65
2023/01/15 03:07:57;;;;;;;10.55;3.55;;;9.90;95.80;;;;;;5068755;28;20040;-65
2023/01/15 03:10:31;;;;;;;11.13;3.67;;;9.90;96.00;;;;;;5042283;28;20032;-64
2023/01/15 03:13:01;;;;;;;6.97;2.88;;;9.90;95.60;;;;;;5064200;28;20051;-64
2023/01/15 03:18:52;;;;;;;11.15;3.50;;;9.80;96.20;;;;;;5067233;28;20442;-65
2023/01/15 03:21:24;;;;;;;11.05;2.83;;;9.90;96.10;;;;;;5071831;28;20020;-65
2023/01/15 03:23:53;;;;;;;10.55;3.30;;;9.80;96.20;;;;;;5070885;28;20032;-65
2023/01/15 03:26:19;;;;;;;13.05;2.83;;;9.80;95.90;;;;;;5068230;28;20487;-64
2023/01/15 03:28:47;;;;;;;9.33;3.20;;;9.80;95.90;;;;;;5066136;28;20017;-65
2023/01/15 03:31:13;;;;;;;12.70;2.78;;;9.80;96.20;;;;;;5064229;28;20722;-65
2023/01/15 03:33:40;;;;;;;15.45;3.28;;;9.70;96.90;;;;;;5068139;28;20036;-65
2023/01/15 03:36:06;;;;;;;9.80;3.45;;;9.70;96.90;;;;;;5071425;28;20085;-65
2023/01/15 03:38:34;;;;;;;6.15;3.30;;;9.70;96.90;;;;;;5072361;28;20032;-64
2023/01/15 03:41:29;;;;;;;11.80;3.55;;;9.70;97.10;;;;;;5070578;28;20024;-64
2023/01/15 03:44:19;;;;;;;12.27;3.15;;;9.70;96.80;;;;;;5067726;28;20067;-65
2023/01/15 03:46:54;;;;;;;10.07;3.25;;;9.60;97.50;;;;;;5068516;28;20025;-65
2023/01/15 03:49:33;;;;;;;10.75;3.80;;;9.60;97.40;;;;;;5062527;28;20139;-65
2023/01/15 03:52:14;;;;;;;18.33;4.15;;;9.60;97.40;;;;;;5071148;28;20029;-65
2023/01/15 03:54:54;;;;;;;11.65;3.28;;;9.60;97.70;;;;;;5066303;28;20086;-65
2023/01/15 03:57:30;;;;;;;15.20;4.30;;;9.60;97.60;;;;;;5071499;28;20017;-65
2023/01/15 04:00:00;;;;;;;10.05;3.42;;;9.60;97.90;;;;;;5067551;28;20024;-65
2023/01/15 04:02:28;;;;;;;14.88;4.22;;;9.50;97.90;;;;;;5049935;28;20433;-64
2023/01/15 04:04:56;;;;;;;12.75;3.70;;;9.50;98.10;;;;;;5072323;28;20039;-65
2023/01/15 04:07:23;;;;;;;15.90;3.85;;;9.50;98.40;;;;;;5069044;28;20319;-65
2023/01/15 04:09:49;;;;;;;13.18;4.18;;;9.50;98.10;;;;;;5073131;28;20031;-64
2023/01/15 04:12:15;;;;;;;15.48;4.57;;;9.50;98.00;;;;;;5067163;28;20096;-64
2023/01/15 04:14:41;;;;;;;10.57;3.97;;;9.50;97.90;;;;;;5069172;28;20130;-65
2023/01/15 04:17:06;;;;;;;7.27;3.23;;;9.50;97.70;;;;;;5070747;28;20025;-64
2023/01/15 04:19:32;;;;;;;12.05;4.20;;;9.50;97.70;;;;;;5066361;28;20047;-64
2023/01/15 04:21:58;;;;;;;10.10;3.60;;;9.50;97.80;;;;;;5070371;28;20074;-65
2023/01/15 04:24:23;;;;;;;14.70;5.00;;;9.40;98.20;;;;;;5071691;28;20024;-64
2023/01/15 04:26:49;;;;;;;13.05;4.90;;;9.60;97.00;;;;;;5065867;28;20100;-65
2023/01/15 04:29:15;;;;;;;19.60;5.17;;;9.50;97.30;;;;;;5062068;28;20032;-65
2023/01/15 04:31:40;;;;;;;14.10;5.30;;;9.60;97.00;;;;;;5064887;28;20025;-65
2023/01/15 04:34:06;;;;;;;9.03;5.03;;;9.50;97.50;;;;;;5074016;28;20654;-65
2023/01/15 04:36:34;;;;;;;16.73;5.10;;;9.60;97.30;;;;;;5067878;28;20032;-65
2023/01/15 04:39:01;;;;;;;12.80;5.25;;;9.50;97.30;;;;;;5067176;28;20154;-65
2023/01/15 04:44:10;;;;;;;14.57;4.88;;;9.60;97.30;;;;;;5062655;28;19915;-65
2023/01/15 04:46:42;;;;;;;15.23;5.00;;;9.50;96.90;;;;;;5068972;28;20025;-65
2023/01/15 04:49:14;;;;;;;11.90;4.68;;;9.50;97.10;;;;;;5068040;28;20031;-65
2023/01/15 04:51:40;;;;;;;8.27;3.63;;;9.50;96.90;;;;;;5063385;28;20043;-64
2023/01/15 04:54:07;;;;;;;11.18;4.57;;;9.50;96.80;;;;;;5073125;28;20051;-65
2023/01/15 04:56:41;;;;;;;10.80;4.28;;;9.60;96.60;;;;;;5067240;28;20033;-65
2023/01/15 04:59:07;;;;;;;15.70;4.93;;;9.50;97.00;;;;;;5059213;28;20025;-65
2023/01/15 05:01:32;;;;;;;14.52;4.68;;;9.40;97.00;;;;;;5071681;28;20024;-65
2023/01/15 05:03:59;;;;;;;9.90;4.50;;;9.40;97.30;;;;;;5067164;28;20040;-65
2023/01/15 05:06:25;;;;;;;13.98;5.55;;;9.30;97.20;;;;;;5065380;28;20025;-65
2023/01/15 05:08:51;;;;;;;13.35;4.40;;;9.20;97.90;;;;;;5070758;28;20397;-65
2023/01/15 05:11:16;;;;;;;14.57;5.13;;;9.20;97.70;;;;;;5062511;28;20021;-65
2023/01/15 05:13:42;;;;;;;12.33;4.80;;;9.20;98.00;;;;;;5069193;28;20051;-65
2023/01/15 05:16:09;;;;;;;15.67;4.50;;;9.20;97.80;;;;;;5070483;28;20028;-65
2023/01/15 05:18:34;;;;;;;17.10;4.65;;;9.20;97.40;;;;;;5074968;28;20096;-65
2023/01/15 05:21:00;;;;;;;11.60;4.63;;;9.10;97.80;;;;;;5067581;28;20099;-65
2023/01/15 05:23:25;;;;;;;12.57;4.63;;;9.10;98.40;;;;;;5063777;28;20025;-65
2023/01/15 05:25:51;;;;;;;13.90;5.00;;;9.10;97.80;;;;;;5071601;28;20029;-65
2023/01/15 05:28:18;;;;;;;14.07;5.20;;;9.20;97.60;;;;;;5072376;28;20052;-65
2023/01/15 05:30:43;;;;;;;15.77;5.13;;;9.10;98.10;;;;;;5069521;28;20083;-65
2023/01/15 05:33:09;;;;;;;14.53;5.27;;;9.20;98.10;;;;;;5086495;28;20028;-65
2023/01/15 05:35:34;;;;;;;18.47;5.47;;;9.10;98.20;;;;;;5067460;28;20033;-65
2023/01/15 05:38:02;;;;;;;14.97;5.90;;;9.00;99.00;;;;;;5071178;28;20676;-65
2023/01/15 05:40:28;;;;;;;21.02;6.30;;;9.00;98.80;;;;;;5073508;28;20112;-64
2023/01/15 05:42:53;;;;;;;22.80;6.50;;;9.00;98.80;;;;;;5077036;28;20099;-65
2023/01/15 05:45:19;;;;;;;22.20;6.00;;;9.00;99.00;;;;;;5071272;28;20021;-65
2023/01/15 05:47:44;;;;;;;21.77;5.80;;;9.00;99.00;;;;;;5078613;28;20774;-64
2023/01/15 05:50:11;;;;;;;17.13;5.30;;;8.90;99.30;;;;;;5072110;28;20040;-65
2023/01/15 05:52:36;;;;;;;15.25;5.70;;;8.90;99.40;;;;;;5069253;28;20033;-65
2023/01/15 05:55:02;;;;;;;12.23;5.93;;;8.90;99.50;;;;;;5073520;28;20094;-65
2023/01/15 05:57:28;;;;;;;20.20;6.10;;;8.90;99.40;;;;;;5069019;28;20511;-65
2023/01/15 05:59:54;;;;;;;14.60;5.90;;;8.90;99.60;;;;;;5075553;28;20426;-65
2023/01/15 06:02:19;;;;;;;16.05;5.78;;;8.90;99.60;;;;;;5071397;28;20033;-65
2023/01/15 06:04:45;;;;;;;16.93;6.57;;;8.90;99.50;;;;;;5075462;28;20033;-65
2023/01/15 06:07:11;;;;;;;15.33;6.93;;;8.80;99.80;;;;;;5069107;28;20071;-65
2023/01/15 06:09:36;;;;;;;21.30;7.07;;;9.00;99.80;;;;;;5071740;28;20028;-65
2023/01/15 06:12:02;;;;;;;19.40;7.13;;;9.00;99.60;;;;;;5069796;28;20098;-65
2023/01/15 06:14:27;;;;;;;16.43;7.13;;;9.00;99.70;;;;;;5068414;28;20040;-65
2023/01/15 06:16:53;;;;;;;22.87;7.40;;;9.00;99.80;;;;;;5070609;28;20734;-64
2023/01/15 06:19:19;;;;;;;22.30;7.63;;;9.00;99.80;;;;;;5069826;28;20545;-65
2023/01/15 06:21:45;;;;;;;21.75;7.38;;;9.00;99.90;;;;;;5068110;28;20013;-64
2023/01/15 06:24:10;;;;;;;16.77;7.77;;;8.90;99.90;;;;;;5074279;28;20075;-65
2023/01/15 06:26:38;;;;;;;19.70;7.73;;;8.80;99.90;;;;;;5083380;28;20041;-64
2023/01/15 06:29:03;;;;;;;25.60;7.78;;;8.80;99.90;;;;;;5071377;28;20028;-65
2023/01/15 06:31:29;;;;;;;23.77;7.93;;;8.80;99.90;;;;;;5069254;28;20024;-65
2023/01/15 06:33:55;;;;;;;19.90;8.80;;;8.70;99.90;;;;;;5073775;28;20031;-64
2023/01/15 06:36:23;;;;;;;22.90;8.37;;;8.70;99.90;;;;;;5072320;28;20036;-65
2023/01/15 06:38:49;;;;;;;22.77;8.95;;;8.70;99.90;;;;;;5074482;28;20353;-65
2023/01/15 06:49:39;;;;;;;20.05;7.38;;;9.00;99.90;;;;;;5070918;28;20115;-65
2023/01/15 06:52:05;;;;;;;14.60;7.07;;;9.10;99.70;;;;;;5072729;28;22145;-65
2023/01/15 06:54:31;;;;;;;15.13;6.57;;;9.30;98.70;;;;;;5070031;28;20041;-65
2023/01/15 06:56:57;;;;;;;14.65;6.97;;;9.30;98.70;;;;;;5071369;28;20037;-65
2023/01/15 06:59:22;;;;;;;20.47;7.47;;;9.30;98.80;;;;;;5070862;28;20021;-65
2023/01/15 07:01:48;;;;;;;21.03;8.20;;;9.40;98.40;;;;;;5071361;28;20020;-65
2023/01/15 07:04:14;;;;;;;15.17;7.33;;;9.40;98.60;;;;;;5070712;28;20060;-65
2023/01/15 07:06:40;;;;;;;17.17;7.38;;;9.30;98.90;;;;;;5066986;28;20028;-64
2023/01/15 07:09:05;;;;;;;25.77;8.30;;;9.40;99.00;;;;;;5074334;28;20041;-65
2023/01/15 07:11:31;;;;;;;19.85;7.43;;;9.30;99.30;;;;;;5073970;28;20028;-65
2023/01/15 07:14:06;;;;;;;16.90;8.10;;;9.40;99.00;;;;;;5066376;28;20040;-65
2023/01/15 07:16:32;;;;;;;19.40;9.07;;;9.30;99.10;;;;;;5067871;28;20029;-65
2023/01/15 07:18:58;;;;;;;;;;;9.40;98.60;;;;;;5068128;28;20025;-65
2023/01/15 07:21:24;;;;;;;14.65;7.50;;;9.40;98.80;;;;;;5071816;28;19908;-65
2023/01/15 07:23:49;;;;;;;21.17;7.57;;;9.40;98.80;;;;;;5067734;28;20468;-65
2023/01/15 07:26:15;;;;;;;21.23;7.67;;;9.40;98.70;;;;;;5064289;28;20028;-65
2023/01/15 07:28:41;;;;;;;23.00;7.07;;;9.40;98.20;;;;;;5063685;28;20741;-65
2023/01/15 07:31:06;;;;;;;12.17;6.83;;;9.40;98.00;;;;;;5069991;28;20436;-65
2023/01/15 07:33:32;;;;;;;27.43;8.43;;;9.50;98.10;;;;;;5068390;28;20040;-65
2023/01/15 07:36:01;;;;;;;28.97;7.30;;;9.50;97.90;;;;;;5070822;28;20502;-65
2023/01/15 07:38:27;;;;;;;17.83;6.50;;;9.60;97.50;;;;;;5071673;28;20555;-65
2023/01/15 07:51:55;;;;;;;17.70;6.07;;;9.60;96.40;;;;;;5068127;28;20028;-65
2023/01/15 07:54:21;;;;;;;14.47;6.53;;;9.70;96.60;;;;;;5068145;28;20033;-65
2023/01/15 07:56:47;;;;;;;12.63;6.03;;;9.70;96.60;;;;;;5068610;28;20032;-65
2023/01/15 07:59:13;;;;;;;13.65;6.25;;;9.60;97.40;;;;;;5072473;28;20404;-65
2023/01/15 08:01:39;;;;;;;14.23;6.57;;;9.60;97.10;;;;;;5066148;28;20028;-65
2023/01/15 08:04:04;;;;;;;12.03;5.93;;;9.60;97.20;;;;;;5068098;28;20115;-65
2023/01/15 08:06:30;;;;;;;19.87;6.60;;;9.60;97.30;;;;;;5063213;28;20094;-66
2023/01/15 08:08:55;;;;;;;17.23;6.57;;;9.60;97.10;;;;;;5067187;28;20389;-65
2023/01/15 08:16:49;;;;;;;15.50;6.97;;;9.80;96.00;;;;;;5074416;28;20053;-65
2023/01/15 08:19:15;;;;;;;16.23;6.53;;;9.80;96.70;;;;;;5065227;28;20025;-65
2023/01/15 08:21:40;;;;;;;16.90;6.60;;;9.70;97.00;;;;;;5065290;28;20021;-64
2023/01/15 08:24:06;;;;;;;17.53;7.00;;;9.60;97.50;;;;;;5067252;28;20025;-65
2023/01/15 08:26:31;;;;;;;11.37;6.77;;;9.50;97.90;;;;;;5070029;28;20028;-65
2023/01/15 08:28:58;;;;;;;13.43;6.30;;;9.50;98.10;;;;;;5069509;28;20270;-64
2023/01/15 08:31:23;;;;;;;11.43;5.55;;;9.50;98.10;;;;;;5066229;28;20025;-65
2023/01/15 08:33:49;;;;;;;16.23;4.80;;;9.40;98.30;;;;;;5069176;28;20082;-64
2023/01/15 08:36:16;;;;;;;11.50;4.40;;;9.40;99.30;;;;;;5070317;28;20282;-65
2023/01/15 08:38:42;;;;;;;6.43;2.50;;;9.30;99.90;;;;;;5066397;28;20040;-65
2023/01/15 08:41:08;;;;;;;3.70;1.55;;;9.20;99.90;;;;;;5072621;28;20020;-64
2023/01/15 08:43:34;;;;;;;1.93;1.30;;;9.00;99.90;;;;;;5070170;28;20028;-65
2023/01/15 08:46:02;;;;;;;8.23;1.70;;;8.90;99.90;;;;;;5070058;28;20328;-65
2023/01/15 08:48:29;;;;;;;3.97;0.80;;;8.80;99.90;;;;;;5074022;28;20033;-65
2023/01/15 08:50:55;;;;;;;0.77;0.70;;;8.60;99.90;;;;;;5072583;28;20035;-65
2023/01/15 08:53:20;;;;;;;3.95;0.80;;;8.50;99.90;;;;;;5068176;28;20020;-65
2023/01/15 08:55:47;;;;;;;2.43;1.07;;;8.50;99.90;;;;;;5069085;28;20064;-65
2023/01/15 08:58:13;;;;;;;2.85;1.60;;;8.40;99.90;;;;;;5071507;28;20032;-65
2023/01/15 09:00:40;;;;;;;1.98;1.13;;;8.40;99.90;;;;;;5074763;28;20054;-64
2023/01/15 09:03:05;;;;;;;2.20;1.00;;;8.30;99.90;;;;;;5073939;28;20043;-64
2023/01/15 09:05:31;;;;;;;1.83;1.00;;;8.30;99.90;;;;;;5071307;28;20096;-65
2023/01/15 09:07:56;;;;;;;3.20;1.13;;;8.20;99.90;;;;;;5073407;28;20028;-65
2023/01/15 09:10:22;;;;;;;1.60;1.20;;;8.20;99.90;;;;;;5072615;28;20029;-65
2023/01/15 09:12:48;;;;;;;1.17;0.90;;;8.20;99.90;;;;;;5071090;28;20119;-65
2023/01/15 09:15:14;;;;;;;1.25;0.90;;;8.10;99.90;;;;;;5069881;28;20511;-64
2023/01/15 09:17:40;;;;;;;3.42;0.95;;;8.10;99.90;;;;;;5072942;28;20028;-64
2023/01/15 09:20:09;;;;;;;1.33;0.70;;;8.10;99.90;;;;;;5071671;28;20036;-64
2023/01/15 09:22:35;;;;;;;3.60;0.80;;;8.10;99.90;;;;;;5071146;28;20043;-65
2023/01/15 09:25:00;;;;;;;5.00;0.80;;;8.10;99.90;;;;;;5065871;28;20032;-65
2023/01/15 09:27:27;;;;;;;2.00;1.17;;;8.10;99.90;;;;;;5074760;28;20559;-64
2023/01/15 09:29:54;;;;;;;1.77;0.65;;;8.10;99.90;;;;;;5073983;28;20081;-66
2023/01/15 09:32:19;;;;;;;1.95;0.73;;;8.10;99.90;;;;;;5063848;28;20031;-64
2023/01/15 09:34:45;;;;;;;3.03;1.27;;;8.10;99.90;;;;;;5077470;28;20032;-65
2023/01/15 09:37:11;;;;;;;2.33;1.43;;;8.10;99.90;;;;;;5070422;28;20024;-65
2023/01/15 09:39:37;;;;;;;1.30;0.83;;;8.10;99.90;;;;;;5075197;28;20021;-64
2023/01/15 09:42:37;;;;;;;2.72;1.75;;;8.20;99.90;;;;;;5056353;28;20021;-65
2023/01/15 09:45:24;;;;;;;1.70;1.05;;;8.20;99.90;;;;;;5066233;28;20070;-65
2023/01/15 09:48:05;;;;;;;2.53;0.65;;;8.20;99.90;;;;;;5073700;28;20029;-65
2023/01/15 09:50:47;;;;;;;1.48;0.80;;;8.20;99.90;;;;;;5076193;28;20031;-64
2023/01/15 09:53:31;;;;;;;2.00;0.65;;;8.20;99.90;;;;;;5060460;28;20036;-64
2023/01/15 09:56:00;;;;;;;2.05;1.15;;;8.20;99.90;;;;;;5063972;28;20024;-64
2023/01/15 09:58:35;;;;;;;0.88;0.68;;;8.20;99.90;;;;;;5070285;28;20115;-64
2023/01/15 10:01:01;;;;;;;6.88;0.80;;;8.30;99.90;;;;;;5069928;28;20021;-65
2023/01/15 10:03:43;;;;;;;2.08;0.90;;;8.40;99.90;;;;;;5071975;28;20028;-68
2023/01/15 10:06:24;;;;;;;1.67;0.98;;;8.40;99.90;;;;;;5069105;28;20041;-65
2023/01/15 10:08:57;;;;;;;1.67;0.98;;;8.30;99.90;;;;;;5069200;28;20017;-65
2023/01/15 10:14:38;;;;;;;3.17;1.35;;;8.20;99.90;;;;;;5071252;28;20640;-64
2023/01/15 10:17:13;;;;;;;1.92;1.10;;;8.20;99.90;;;;;;5066690;28;20064;-65
2023/01/15 10:19:39;;;;;;;2.50;1.83;;;8.20;99.90;;;;;;5071515;28;20024;-64
2023/01/15 10:22:22;;;;;;;6.25;3.00;;;8.20;99.90;;;;;;5075077;28;20687;-65
2023/01/15 10:24:56;;;;;;;5.22;2.15;;;8.10;99.90;;;;;;5074406;28;20035;-66
2023/01/15 10:27:24;;;;;;;1.33;1.13;;;8.20;99.90;;;;;;5070348;28;20097;-65
2023/01/15 10:29:58;;;;;;;2.38;2.00;;;8.10;99.90;;;;;;5070487;28;20032;-66
2023/01/15 10:32:47;;;;;;;1.77;1.27;;;8.00;99.90;;;;;;5068811;28;20017;-65
2023/01/15 10:35:34;;;;;;;1.52;1.20;;;7.80;99.90;;;;;;5063878;28;20041;-65
2023/01/15 10:38:24;;;;;;;1.50;1.20;;;7.80;99.90;;;;;;5069169;28;20024;-65
2023/01/15 10:40:59;;;;;;;2.83;1.00;;;7.80;99.90;;;;;;5073188;28;20270;-66
2023/01/15 10:43:52;;;;;;;2.17;1.08;;;7.80;99.90;;;;;;5073264;28;20243;-65
2023/01/15 10:46:24;;;;;;;4.72;1.10;;;7.80;99.90;;;;;;5066220;28;20024;-65
2023/01/15 10:48:56;;;;;;;1.45;0.82;;;7.70;99.90;;;;;;5072493;28;20152;-65
2023/01/15 10:51:23;;;;;;;1.20;0.80;;;7.70;99.90;;;;;;5074791;28;20028;-65
2023/01/15 10:53:52;;;;;;;;;;;7.70;99.90;;;;;;5068702;28;20078;-66
2023/01/15 10:56:36;;;;;;;1.88;0.98;;;7.70;99.90;;;;;;5063582;28;19955;-65
2023/01/15 10:59:33;;;;;;;2.28;1.40;;;7.60;99.90;;;;;;5067870;28;20025;-65
2023/01/15 11:02:01;;;;;;;2.13;1.40;;;7.60;99.90;;;;;;5075301;28;20064;-65
2023/01/15 11:04:31;;;;;;;1.77;1.30;;;7.60;99.90;;;;;;5072015;28;20062;-65
2023/01/15 11:06:59;;;;;;;2.53;1.65;;;7.50;99.90;;;;;;5069942;28;20040;-65
2023/01/15 11:09:33;;;;;;;4.13;1.73;;;7.50;99.90;;;;;;5067125;28;20403;-65
2023/01/15 11:20:47;;;;;;;4.20;2.10;;;7.40;99.90;;;;;;5069090;28;20633;-65
2023/01/15 11:23:17;;;;;;;5.53;2.50;;;7.30;99.90;;;;;;5073188;28;20021;-65
2023/01/15 11:26:15;;;;;;;2.78;1.67;;;7.30;99.90;;;;;;5069281;28;20009;-66
2023/01/15 11:28:42;;;;;;;;;;;7.10;99.90;;;;;;5064980;28;20036;-65
2023/01/15 11:31:10;;;;;;;7.70;3.37;;;7.00;99.90;;;;;;5074241;28;19915;-65
2023/01/15 11:33:37;;;;;;;20.00;8.05;;;7.00;99.90;;;;;;5066666;28;20037;-65
2023/01/15 11:36:05;;;;;;;4.70;3.05;;;7.00;99.90;;;;;;5067001;28;20044;-65
2023/01/15 11:38:43;;;;;;;4.75;3.65;;;7.00;99.90;;;;;;5073112;28;20032;-65
2023/01/15 11:52:40;;;;;;;1.58;0.80;;;6.90;99.90;;;;;;5069718;28;20031;-65
2023/01/15 11:55:16;;;;;;;6.07;0.73;;;6.90;99.90;;;;;;5070500;28;20036;-65
2023/01/15 11:57:43;;;;;;;1.27;0.80;;;6.90;99.90;;;;;;5067776;28;20115;-65
2023/01/15 12:00:20;;;;;;;0.63;0.60;;;7.00;99.90;;;;;;5067038;28;20095;-66
2023/01/15 12:02:48;;;;;;;1.20;0.80;;;7.00;99.90;;;;;;5067701;28;20105;-66
2023/01/15 12:05:21;;;;;;;1.08;0.80;;;7.10;99.90;;;;;;5071850;28;20033;-65
2023/01/15 12:07:51;;;;;;;2.47;1.02;;;7.10;99.90;;;;;;5069072;28;20036;-65
2023/01/15 12:13:45;;;;;;;2.80;1.70;;;7.00;99.90;;;;;;5070128;28;20034;-65
2023/01/15 12:16:29;;;;;;;1.58;1.20;;;7.00;99.90;;;;;;5068532;28;20357;-65
2023/01/15 12:19:15;;;;;;;2.60;1.50;;;7.10;99.90;;;;;;5065407;28;20035;-65
2023/01/15 12:21:58;;;;;;;2.63;1.40;;;6.90;99.90;;;;;;5063074;28;20032;-65
2023/01/15 12:24:49;;;;;;;2.60;1.92;;;6.70;99.90;;;;;;5072242;28;20109;-65
2023/01/15 12:27:21;;;;;;;5.68;3.15;;;6.70;99.90;;;;;;5067188;28;20471;-65
2023/01/15 12:29:59;;;;;;;6.55;3.60;;;6.70;99.90;;;;;;5069473;28;20031;-65
2023/01/15 12:32:31;;;;;;;4.05;2.65;;;6.80;99.90;;;;;;5066488;28;20041;-65
2023/01/15 12:35:16;;;;;;;5.65;2.58;;;6.70;99.90;;;;;;5072979;28;20044;-65
2023/01/15 12:37:54;;;;;;;3.88;2.15;;;6.60;99.90;;;;;;5088994;28;20028;-65
2023/01/15 12:40:27;;;;;;;9.45;5.25;;;6.70;99.90;;;;;;5053679;28;20040;-65
2023/01/15 12:45:51;;;;;;;4.90;2.10;;;6.60;99.90;;;;;;5067450;28;20082;-65
2023/01/15 12:48:25;;;;;;;;;;;6.60;99.90;;;;;;5070566;28;20032;-65
2023/01/15 12:50:55;;;;;;;2.90;1.80;;;6.70;99.90;;;;;;5070367;28;20007;-65
2023/01/15 12:53:30;;;;;;;2.35;1.60;;;6.50;99.90;;;;;;5067567;28;20082;-65
2023/01/15 12:56:19;;;;;;;6.47;2.35;;;6.60;99.90;;;;;;5069743;28;20093;-65
2023/01/15 12:58:58;;;;;;;4.03;2.05;;;6.60;99.90;;;;;;5084043;28;20028;-65
2023/01/15 13:01:57;;;;;;;4.25;2.22;;;6.50;99.90;;;;;;5067313;28;20036;-65
2023/01/15 13:04:26;;;;;;;5.25;2.60;;;6.50;99.90;;;;;;5073374;28;20059;-65
2023/01/15 13:07:00;;;;;;;6.28;2.55;;;6.50;99.90;;;;;;5065349;28;20036;-65
2023/01/15 13:09:50;;;;;;;2.20;1.50;;;6.60;99.90;;;;;;5068943;28;20392;-65
2023/01/15 13:12:16;;;;;;;2.45;1.60;;;6.60;99.90;;;;;;5059656;28;20058;-65
2023/01/15 13:14:42;;;;;;;2.83;1.75;;;6.50;99.90;;;;;;5071257;28;20032;-65
2023/01/15 13:17:35;;;;;;;;;;;6.50;99.90;;;;;;5069139;28;20098;-65
2023/01/15 13:20:46;;;;;;;6.85;2.35;;;6.50;99.90;;;;;;5060806;28;20443;-65
2023/01/15 13:23:36;;;;;;;4.15;1.70;;;6.50;99.90;;;;;;5030670;28;20120;-65
2023/01/15 13:26:20;;;;;;;4.90;2.03;;;6.40;99.90;;;;;;5067887;28;20716;-65
2023/01/15 13:29:01;;;;;;;7.40;2.72;;;6.40;99.90;;;;;;5068889;28;20052;-65
2023/01/15 13:31:51;;;;;;;5.22;2.08;;;6.40;99.90;;;;;;5061897;28;20141;-66
2023/01/15 13:34:37;;;;;;;4.22;2.90;;;6.50;99.90;;;;;;5070909;28;20035;-65
2023/01/15 13:37:12;;;;;;;3.10;1.95;;;6.50;99.90;;;;;;5069722;28;20111;-65
2023/01/15 13:39:41;;;;;;;5.30;2.17;;;6.60;99.90;;;;;;5072165;28;20052;-65
2023/01/15 13:42:30;;;;;;;2.60;1.73;;;6.70;99.90;;;;;;5074583;28;20023;-66
2023/01/15 13:44:59;;;;;;;6.03;2.22;;;6.70;99.90;;;;;;5061991;28;20036;-66
2023/01/15 13:47:27;;;;;;;4.00;2.53;;;6.80;99.90;;;;;;5066507;28;20048;-68
2023/01/15 13:50:00;;;;;;;7.20;2.55;;;6.90;99.90;;;;;;5070427;28;20036;-68
2023/01/15 13:52:32;;;;;;;4.47;2.88;;;6.80;99.90;;;;;;5068615;28;20029;-69
2023/01/15 13:55:17;;;;;;;6.65;2.53;;;6.80;99.90;;;;;;5068101;28;20526;-69
2023/01/15 13:57:43;;;;;;;4.53;2.65;;;6.90;99.90;;;;;;5074557;28;20032;-70
2023/01/15 14:00:32;;;;;;;9.20;2.63;;;6.90;99.90;;;;;;5065202;28;20032;-69
2023/01/15 14:03:01;;;;;;;4.25;2.50;;;7.00;99.90;;;;;;5066705;28;20032;-70
2023/01/15 14:05:30;;;;;;;4.47;2.05;;;6.80;99.90;;;;;;5067760;28;20040;-71
2023/01/15 14:07:56;;;;;;;6.38;3.00;;;6.70;99.90;;;;;;5069097;28;20447;-70
2023/01/15 14:10:30;;;;;;;7.25;3.65;;;6.70;99.90;;;;;;5068124;28;20032;-69
2023/01/15 14:13:14;;;;;;;8.48;4.40;;;6.70;99.90;;;;;;5066304;28;20079;-70
2023/01/15 14:16:06;;;;;;;7.18;3.53;;;6.70;99.90;;;;;;5067834;28;20067;-70
2023/01/15 14:19:02;;;;;;;4.47;2.47;;;6.60;99.90;;;;;;5069024;28;20036;-69
2023/01/15 14:21:46;;;;;;;5.90;2.63;;;6.60;99.90;;;;;;5067347;28;20052;-70